sensor_id;sensor_type;location;lat;lon;timestamp;pressure;altitude;pressure_sealevel;temperature;humidity
23164;BME280;31429;42.674;23.350;2023-07-02T00:00:52;94142.88;;;18.32;100.00
23164;BME280;31429;42.674;23.350;2023-07-02T00:01:53;94149.22;;;18.28;100.00
23164;BME280;31429;42.674;23.350;2023-07-02T00:02:55;94146.78;;;18.26;100.00
23164;BME280;31429;42.674;23.350;2023-07-02T00:03:56;94145.13;;;18.25;100.00
23164;BME280;31429;42.674;23.350;2023-07-02T00:04:57;94152.63;;;18.39;100.00
23164;BME280;31429;42.674;23.350;2023-07-02T00:05:57;94154.75;;;18.57;100.00
23164;BME280;31429;42.674;23.350;2023-07-02T00:06:58;94147.59;;;18.60;100.00
23164;BME280;31429;42.674;23.350;2023-07-02T00:07:59;94152.41;;;18.54;100.00
23164;BME280;31429;42.674;23.350;2023-07-02T00:08:59;94149.38;;;18.49;100.00
23164;BME280;31429;42.674;23.350;2023-07-02T00:10:00;94148.97;;;18.42;100.00
23164;BME280;31429;42.674;23.350;2023-07-02T00:11:00;94146.06;;;18.47;100.00
23164;BME280;31429;42.674;23.350;2023-07-02T00:12:01;94138.66;;;18.53;100.00
23164;BME280;31429;42.674;23.350;2023-07-02T00:13:02;94146.78;;;18.49;100.00
23164;BME280;31429;42.674;23.350;2023-07-02T00:14:02;94141.81;;;18.46;100.00
23164;BME280;31429;42.674;23.350;2023-07-02T00:15:04;94145.22;;;18.57;100.00
23164;BME280;31429;42.674;23.350;2023-07-02T00:16:05;94140.28;;;18.54;100.00
23164;BME280;31429;42.674;23.350;2023-07-02T00:17:06;94136.53;;;18.47;100.00
23164;BME280;31429;42.674;23.350;2023-07-02T00:18:08;94142.28;;;18.62;100.00
23164;BME280;31429;42.674;23.350;2023-07-02T00:19:08;94129.59;;;18.59;100.00
23164;BME280;31429;42.674;23.350;2023-07-02T00:20:10;94133.50;;;18.53;100.00
23164;BME280;31429;42.674;23.350;2023-07-02T00:21:15;94134.06;;;18.34;100.00
23164;BME280;31429;42.674;23.350;2023-07-02T00:22:15;94127.22;;;18.22;100.00
23164;BME280;31429;42.674;23.350;2023-07-02T00:23:16;94134.53;;;18.17;100.00
23164;BME280;31429;42.674;23.350;2023-07-02T00:24:17;94126.78;;;18.17;100.00
23164;BME280;31429;42.674;23.350;2023-07-02T00:25:17;94129.03;;;18.22;100.00
23164;BME280;31429;42.674;23.350;2023-07-02T00:26:18;94124.06;;;18.30;100.00
23164;BME280;31429;42.674;23.350;2023-07-02T00:27:19;94124.63;;;18.33;100.00
23164;BME280;31429;42.674;23.350;2023-07-02T00:28:19;94118.53;;;18.23;100.00
23164;BME280;31429;42.674;23.350;2023-07-02T00:29:20;94124.41;;;18.14;100.00
23164;BME280;31429;42.674;23.350;2023-07-02T00:30:21;94132.53;;;18.32;100.00
23164;BME280;31429;42.674;23.350;2023-07-02T00:31:22;94131.22;;;18.60;100.00
23164;BME280;31429;42.674;23.350;2023-07-02T00:32:23;94137.00;;;18.63;100.00
23164;BME280;31429;42.674;23.350;2023-07-02T00:33:25;94141.38;;;18.52;100.00
23164;BME280;31429;42.674;23.350;2023-07-02T00:34:26;94138.06;;;18.38;100.00
23164;BME280;31429;42.674;23.350;2023-07-02T00:35:26;94138.53;;;18.21;100.00
23164;BME280;31429;42.674;23.350;2023-07-02T00:36:27;94138.31;;;18.13;100.00
23164;BME280;31429;42.674;23.350;2023-07-02T00:37:28;94140.53;;;18.18;100.00
23164;BME280;31429;42.674;23.350;2023-07-02T00:38:29;94136.78;;;18.22;100.00
23164;BME280;31429;42.674;23.350;2023-07-02T00:39:30;94149.72;;;18.33;100.00
23164;BME280;31429;42.674;23.350;2023-07-02T00:40:30;94148.88;;;18.32;100.00
23164;BME280;31429;42.674;23.350;2023-07-02T00:41:31;94151.94;;;18.26;100.00
23164;BME280;31429;42.674;23.350;2023-07-02T00:42:32;94152.19;;;18.23;100.00
23164;BME280;31429;42.674;23.350;2023-07-02T00:43:32;94153.25;;;18.21;100.00
23164;BME280;31429;42.674;23.350;2023-07-02T00:44:33;94159.13;;;18.12;100.00
23164;BME280;31429;42.674;23.350;2023-07-02T00:45:40;94150.06;;;18.06;100.00
23164;BME280;31429;42.674;23.350;2023-07-02T00:46:41;94157.59;;;18.09;100.00
23164;BME280;31429;42.674;23.350;2023-07-02T00:47:42;94152.06;;;18.14;100.00
23164;BME280;31429;42.674;23.350;2023-07-02T00:48:45;94155.47;;;18.03;100.00
23164;BME280;31429;42.674;23.350;2023-07-02T00:49:46;94150.28;;;18.03;100.00
23164;BME280;31429;42.674;23.350;2023-07-02T00:50:47;94153.00;;;18.02;100.00
23164;BME280;31429;42.674;23.350;2023-07-02T00:51:48;94148.63;;;18.02;100.00
23164;BME280;31429;42.674;23.350;2023-07-02T00:52:48;94146.88;;;18.03;100.00
23164;BME280;31429;42.674;23.350;2023-07-02T00:53:50;94141.13;;;18.10;100.00
23164;BME280;31429;42.674;23.350;2023-07-02T00:54:51;94155.69;;;18.11;100.00
23164;BME280;31429;42.674;23.350;2023-07-02T00:55:52;94154.91;;;18.22;100.00
23164;BME280;31429;42.674;23.350;2023-07-02T00:56:53;94158.53;;;18.30;100.00
23164;BME280;31429;42.674;23.350;2023-07-02T00:57:53;94155.47;;;18.25;100.00
23164;BME280;31429;42.674;23.350;2023-07-02T00:58:56;94147.59;;;18.27;100.00
23164;BME280;31429;42.674;23.350;2023-07-02T00:59:58;94150.50;;;18.33;100.00
23164;BME280;31429;42.674;23.350;2023-07-02T01:01:03;94146.63;;;18.39;100.00
23164;BME280;31429;42.674;23.350;2023-07-02T01:02:04;94143.00;;;18.42;100.00
23164;BME280;31429;42.674;23.350;2023-07-02T01:03:05;94145.94;;;18.37;100.00
23164;BME280;31429;42.674;23.350;2023-07-02T01:04:07;94143.56;;;18.34;100.00
23164;BME280;31429;42.674;23.350;2023-07-02T01:05:08;94139.44;;;18.43;100.00
23164;BME280;31429;42.674;23.350;2023-07-02T01:06:09;94137.31;;;18.48;100.00
23164;BME280;31429;42.674;23.350;2023-07-02T01:07:10;94134.88;;;18.46;100.00
23164;BME280;31429;42.674;23.350;2023-07-02T01:08:11;94138.38;;;18.45;100.00
23164;BME280;31429;42.674;23.350;2023-07-02T01:09:12;94141.69;;;18.47;100.00
23164;BME280;31429;42.674;23.350;2023-07-02T01:10:13;94141.22;;;18.42;100.00
23164;BME280;31429;42.674;23.350;2023-07-02T01:11:13;94141.94;;;18.33;100.00
23164;BME280;31429;42.674;23.350;2023-07-02T01:12:15;94142.78;;;18.56;100.00
23164;BME280;31429;42.674;23.350;2023-07-02T01:13:21;94144.38;;;18.68;100.00
23164;BME280;31429;42.674;23.350;2023-07-02T01:14:25;94142.63;;;18.46;100.00
23164;BME280;31429;42.674;23.350;2023-07-02T01:15:27;94143.59;;;18.23;100.00
23164;BME280;31429;42.674;23.350;2023-07-02T01:16:29;94151.47;;;18.44;100.00
23164;BME280;31429;42.674;23.350;2023-07-02T01:17:34;94153.25;;;18.54;100.00
23164;BME280;31429;42.674;23.350;2023-07-02T01:18:42;94154.19;;;18.53;100.00
23164;BME280;31429;42.674;23.350;2023-07-02T01:19:46;94153.81;;;18.47;100.00
23164;BME280;31429;42.674;23.350;2023-07-02T01:20:53;94145.94;;;18.48;100.00
23164;BME280;31429;42.674;23.350;2023-07-02T01:21:54;94148.28;;;18.51;100.00
23164;BME280;31429;42.674;23.350;2023-07-02T01:22:55;94147.66;;;18.81;100.00
23164;BME280;31429;42.674;23.350;2023-07-02T01:23:57;94151.25;;;19.01;100.00
23164;BME280;31429;42.674;23.350;2023-07-02T01:24:59;94148.34;;;18.83;100.00
23164;BME280;31429;42.674;23.350;2023-07-02T01:26:00;94146.97;;;18.68;100.00
23164;BME280;31429;42.674;23.350;2023-07-02T01:27:01;94146.53;;;18.41;100.00
23164;BME280;31429;42.674;23.350;2023-07-02T01:28:02;94138.63;;;18.31;100.00
23164;BME280;31429;42.674;23.350;2023-07-02T01:29:13;94138.63;;;18.31;100.00
23164;BME280;31429;42.674;23.350;2023-07-02T01:30:14;94141.81;;;18.34;100.00
23164;BME280;31429;42.674;23.350;2023-07-02T01:31:16;94148.19;;;18.53;100.00
23164;BME280;31429;42.674;23.350;2023-07-02T01:32:17;94155.38;;;18.49;100.00
23164;BME280;31429;42.674;23.350;2023-07-02T01:33:17;94149.13;;;18.41;100.00
23164;BME280;31429;42.674;23.350;2023-07-02T01:34:18;94130.75;;;18.44;100.00
23164;BME280;31429;42.674;23.350;2023-07-02T01:35:20;94137.34;;;18.36;100.00
23164;BME280;31429;42.674;23.350;2023-07-02T01:36:21;94132.88;;;18.38;100.00
23164;BME280;31429;42.674;23.350;2023-07-02T01:37:21;94126.75;;;18.51;100.00
23164;BME280;31429;42.674;23.350;2023-07-02T01:38:22;94114.41;;;18.54;100.00
23164;BME280;31429;42.674;23.350;2023-07-02T01:39:23;94129.31;;;18.62;100.00
23164;BME280;31429;42.674;23.350;2023-07-02T01:40:23;94129.28;;;18.84;100.00
23164;BME280;31429;42.674;23.350;2023-07-02T01:41:24;94133.75;;;18.82;100.00
23164;BME280;31429;42.674;23.350;2023-07-02T01:42:25;94119.63;;;18.86;100.00
23164;BME280;31429;42.674;23.350;2023-07-02T01:43:25;94119.19;;;18.81;100.00
23164;BME280;31429;42.674;23.350;2023-07-02T01:44:26;94116.69;;;18.79;100.00
23164;BME280;31429;42.674;23.350;2023-07-02T01:45:26;94121.38;;;18.85;100.00
23164;BME280;31429;42.674;23.350;2023-07-02T01:46:27;94124.78;;;18.97;100.00
23164;BME280;31429;42.674;23.350;2023-07-02T01:47:28;94126.44;;;18.98;100.00
23164;BME280;31429;42.674;23.350;2023-07-02T01:48:28;94118.66;;;18.98;100.00
23164;BME280;31429;42.674;23.350;2023-07-02T01:49:30;94118.31;;;18.91;100.00
23164;BME280;31429;42.674;23.350;2023-07-02T01:50:32;94122.56;;;18.92;100.00
23164;BME280;31429;42.674;23.350;2023-07-02T01:51:32;94126.84;;;18.71;100.00
23164;BME280;31429;42.674;23.350;2023-07-02T01:52:33;94131.13;;;18.61;100.00
23164;BME280;31429;42.674;23.350;2023-07-02T01:53:34;94128.41;;;18.52;100.00
23164;BME280;31429;42.674;23.350;2023-07-02T01:54:35;94126.97;;;18.48;100.00
23164;BME280;31429;42.674;23.350;2023-07-02T01:55:37;94116.63;;;18.48;100.00
23164;BME280;31429;42.674;23.350;2023-07-02T01:56:38;94102.31;;;19.18;100.00
23164;BME280;31429;42.674;23.350;2023-07-02T01:57:38;94108.84;;;19.02;100.00
23164;BME280;31429;42.674;23.350;2023-07-02T01:58:39;94110.44;;;18.82;100.00
23164;BME280;31429;42.674;23.350;2023-07-02T01:59:40;94116.84;;;18.78;100.00
23164;BME280;31429;42.674;23.350;2023-07-02T02:00:40;94110.44;;;18.82;100.00
23164;BME280;31429;42.674;23.350;2023-07-02T02:01:41;94110.13;;;18.75;100.00
23164;BME280;31429;42.674;23.350;2023-07-02T02:02:42;94110.16;;;18.64;100.00
23164;BME280;31429;42.674;23.350;2023-07-02T02:03:43;94103.94;;;18.56;100.00
23164;BME280;31429;42.674;23.350;2023-07-02T02:04:44;94109.22;;;18.54;100.00
23164;BME280;31429;42.674;23.350;2023-07-02T02:05:46;94105.00;;;18.53;100.00
23164;BME280;31429;42.674;23.350;2023-07-02T02:06:46;94104.88;;;18.44;100.00
23164;BME280;31429;42.674;23.350;2023-07-02T02:07:47;94104.06;;;18.32;100.00
23164;BME280;31429;42.674;23.350;2023-07-02T02:08:48;94093.97;;;18.18;100.00
23164;BME280;31429;42.674;23.350;2023-07-02T02:09:48;94082.19;;;18.14;100.00
23164;BME280;31429;42.674;23.350;2023-07-02T02:10:49;94076.91;;;18.26;100.00
23164;BME280;31429;42.674;23.350;2023-07-02T02:11:50;94084.66;;;18.37;100.00
23164;BME280;31429;42.674;23.350;2023-07-02T02:12:52;94086.75;;;18.55;100.00
23164;BME280;31429;42.674;23.350;2023-07-02T02:13:53;94094.38;;;18.56;100.00
23164;BME280;31429;42.674;23.350;2023-07-02T02:14:53;94096.66;;;18.38;100.00
23164;BME280;31429;42.674;23.350;2023-07-02T02:15:54;94092.41;;;18.37;100.00
23164;BME280;31429;42.674;23.350;2023-07-02T02:16:55;94096.19;;;18.45;100.00
23164;BME280;31429;42.674;23.350;2023-07-02T02:17:56;94104.31;;;18.83;100.00
23164;BME280;31429;42.674;23.350;2023-07-02T02:18:56;94107.84;;;18.82;100.00
23164;BME280;31429;42.674;23.350;2023-07-02T02:19:57;94112.28;;;18.59;100.00
23164;BME280;31429;42.674;23.350;2023-07-02T02:20:59;94107.22;;;18.47;100.00
23164;BME280;31429;42.674;23.350;2023-07-02T02:22:00;94098.44;;;18.27;100.00
23164;BME280;31429;42.674;23.350;2023-07-02T02:23:00;94099.38;;;18.04;100.00
23164;BME280;31429;42.674;23.350;2023-07-02T02:24:01;94099.38;;;17.93;100.00
23164;BME280;31429;42.674;23.350;2023-07-02T02:25:02;94101.84;;;18.05;100.00
23164;BME280;31429;42.674;23.350;2023-07-02T02:26:03;94101.13;;;18.14;100.00
23164;BME280;31429;42.674;23.350;2023-07-02T02:27:04;94091.47;;;18.16;100.00
23164;BME280;31429;42.674;23.350;2023-07-02T02:28:05;94087.00;;;18.29;100.00
23164;BME280;31429;42.674;23.350;2023-07-02T02:29:05;94084.19;;;18.32;100.00
23164;BME280;31429;42.674;23.350;2023-07-02T02:30:07;94085.72;;;18.24;100.00
23164;BME280;31429;42.674;23.350;2023-07-02T02:31:08;94085.53;;;18.05;100.00
23164;BME280;31429;42.674;23.350;2023-07-02T02:32:09;94080.31;;;17.94;100.00
23164;BME280;31429;42.674;23.350;2023-07-02T02:33:09;94076.44;;;17.88;100.00
23164;BME280;31429;42.674;23.350;2023-07-02T02:34:10;94087.28;;;17.93;100.00
23164;BME280;31429;42.674;23.350;2023-07-02T02:35:11;94099.03;;;18.08;100.00
23164;BME280;31429;42.674;23.350;2023-07-02T02:36:13;94097.41;;;17.96;100.00
23164;BME280;31429;42.674;23.350;2023-07-02T02:37:13;94081.28;;;17.93;100.00
23164;BME280;31429;42.674;23.350;2023-07-02T02:38:14;94077.28;;;17.77;100.00
23164;BME280;31429;42.674;23.350;2023-07-02T02:39:15;94082.13;;;17.82;100.00
23164;BME280;31429;42.674;23.350;2023-07-02T02:40:15;94093.75;;;17.99;100.00
23164;BME280;31429;42.674;23.350;2023-07-02T02:41:16;94084.34;;;17.87;100.00
23164;BME280;31429;42.674;23.350;2023-07-02T02:42:17;94082.22;;;17.80;100.00
23164;BME280;31429;42.674;23.350;2023-07-02T02:43:17;94080.94;;;17.75;100.00
23164;BME280;31429;42.674;23.350;2023-07-02T02:44:18;94073.75;;;17.67;100.00
23164;BME280;31429;42.674;23.350;2023-07-02T02:45:18;94069.41;;;17.79;100.00
23164;BME280;31429;42.674;23.350;2023-07-02T02:46:20;94073.53;;;17.93;100.00
23164;BME280;31429;42.674;23.350;2023-07-02T02:47:21;94080.59;;;17.91;100.00
23164;BME280;31429;42.674;23.350;2023-07-02T02:48:22;94076.81;;;17.84;100.00
23164;BME280;31429;42.674;23.350;2023-07-02T02:49:23;94074.94;;;17.86;100.00
23164;BME280;31429;42.674;23.350;2023-07-02T02:50:24;94062.22;;;17.71;100.00
23164;BME280;31429;42.674;23.350;2023-07-02T02:51:26;94053.66;;;17.60;100.00
23164;BME280;31429;42.674;23.350;2023-07-02T02:52:26;94058.13;;;17.58;100.00
23164;BME280;31429;42.674;23.350;2023-07-02T02:53:27;94074.09;;;17.74;100.00
23164;BME280;31429;42.674;23.350;2023-07-02T02:54:28;94076.94;;;17.93;100.00
23164;BME280;31429;42.674;23.350;2023-07-02T02:55:28;94088.22;;;18.03;100.00
23164;BME280;31429;42.674;23.350;2023-07-02T02:56:29;94090.81;;;17.92;100.00
23164;BME280;31429;42.674;23.350;2023-07-02T02:57:29;94094.09;;;17.72;100.00
23164;BME280;31429;42.674;23.350;2023-07-02T02:58:30;94087.84;;;17.63;100.00
23164;BME280;31429;42.674;23.350;2023-07-02T02:59:31;94087.25;;;17.71;100.00
23164;BME280;31429;42.674;23.350;2023-07-02T03:00:31;94086.09;;;17.86;100.00
23164;BME280;31429;42.674;23.350;2023-07-02T03:01:32;94089.16;;;17.80;100.00
23164;BME280;31429;42.674;23.350;2023-07-02T03:02:33;94084.66;;;17.71;100.00
23164;BME280;31429;42.674;23.350;2023-07-02T03:03:33;94078.09;;;17.78;100.00
23164;BME280;31429;42.674;23.350;2023-07-02T03:04:38;94076.22;;;17.91;100.00
23164;BME280;31429;42.674;23.350;2023-07-02T03:05:40;94078.53;;;18.16;100.00
23164;BME280;31429;42.674;23.350;2023-07-02T03:06:42;94083.00;;;18.25;100.00
23164;BME280;31429;42.674;23.350;2023-07-02T03:07:42;94084.28;;;18.42;100.00
23164;BME280;31429;42.674;23.350;2023-07-02T03:08:43;94087.84;;;18.30;100.00
23164;BME280;31429;42.674;23.350;2023-07-02T03:09:44;94089.13;;;18.02;100.00
23164;BME280;31429;42.674;23.350;2023-07-02T03:10:44;94083.97;;;17.80;100.00
23164;BME280;31429;42.674;23.350;2023-07-02T03:11:46;94084.81;;;17.69;100.00
23164;BME280;31429;42.674;23.350;2023-07-02T03:12:47;94082.56;;;17.65;100.00
23164;BME280;31429;42.674;23.350;2023-07-02T03:13:48;94079.63;;;17.69;100.00
23164;BME280;31429;42.674;23.350;2023-07-02T03:14:49;94082.44;;;17.77;100.00
23164;BME280;31429;42.674;23.350;2023-07-02T03:15:53;94082.81;;;17.84;100.00
23164;BME280;31429;42.674;23.350;2023-07-02T03:16:54;94079.41;;;17.95;100.00
23164;BME280;31429;42.674;23.350;2023-07-02T03:17:55;94082.34;;;17.90;100.00
23164;BME280;31429;42.674;23.350;2023-07-02T03:18:55;94083.41;;;17.88;100.00
23164;BME280;31429;42.674;23.350;2023-07-02T03:19:56;94069.53;;;17.89;100.00
23164;BME280;31429;42.674;23.350;2023-07-02T03:20:58;94069.66;;;17.87;100.00
23164;BME280;31429;42.674;23.350;2023-07-02T03:22:00;94068.00;;;17.97;100.00
23164;BME280;31429;42.674;23.350;2023-07-02T03:23:01;94064.47;;;17.98;100.00
23164;BME280;31429;42.674;23.350;2023-07-02T03:24:02;94070.47;;;17.99;100.00
23164;BME280;31429;42.674;23.350;2023-07-02T03:25:03;94064.81;;;18.16;100.00
23164;BME280;31429;42.674;23.350;2023-07-02T03:26:04;94083.94;;;18.35;100.00
23164;BME280;31429;42.674;23.350;2023-07-02T03:27:05;94084.41;;;18.52;100.00
23164;BME280;31429;42.674;23.350;2023-07-02T03:28:06;94093.31;;;18.48;100.00
23164;BME280;31429;42.674;23.350;2023-07-02T03:29:07;94100.88;;;18.51;100.00
23164;BME280;31429;42.674;23.350;2023-07-02T03:30:08;94104.88;;;18.44;100.00
23164;BME280;31429;42.674;23.350;2023-07-02T03:31:09;94102.53;;;18.41;100.00
23164;BME280;31429;42.674;23.350;2023-07-02T03:32:09;94100.06;;;18.50;100.00
23164;BME280;31429;42.674;23.350;2023-07-02T03:33:10;94107.91;;;18.60;100.00
23164;BME280;31429;42.674;23.350;2023-07-02T03:34:10;94111.19;;;18.62;100.00
23164;BME280;31429;42.674;23.350;2023-07-02T03:35:11;94109.09;;;18.67;100.00
23164;BME280;31429;42.674;23.350;2023-07-02T03:36:12;94113.81;;;18.39;100.00
23164;BME280;31429;42.674;23.350;2023-07-02T03:37:14;94108.66;;;18.17;100.00
23164;BME280;31429;42.674;23.350;2023-07-02T03:38:14;94113.59;;;18.09;100.00
23164;BME280;31429;42.674;23.350;2023-07-02T03:39:15;94109.38;;;18.08;100.00
23164;BME280;31429;42.674;23.350;2023-07-02T03:40:16;94111.63;;;18.13;100.00
23164;BME280;31429;42.674;23.350;2023-07-02T03:41:17;94109.72;;;18.15;100.00
23164;BME280;31429;42.674;23.350;2023-07-02T03:42:18;94108.91;;;18.14;100.00
23164;BME280;31429;42.674;23.350;2023-07-02T03:43:18;94106.91;;;18.07;100.00
23164;BME280;31429;42.674;23.350;2023-07-02T03:44:19;94109.50;;;18.07;100.00
23164;BME280;31429;42.674;23.350;2023-07-02T03:45:20;94106.31;;;18.14;100.00
23164;BME280;31429;42.674;23.350;2023-07-02T03:46:20;94113.00;;;18.17;100.00
23164;BME280;31429;42.674;23.350;2023-07-02T03:47:21;94108.44;;;17.98;100.00
23164;BME280;31429;42.674;23.350;2023-07-02T03:48:22;94104.34;;;17.85;100.00
23164;BME280;31429;42.674;23.350;2023-07-02T03:49:22;94101.59;;;17.75;100.00
23164;BME280;31429;42.674;23.350;2023-07-02T03:50:23;94097.13;;;17.77;100.00
23164;BME280;31429;42.674;23.350;2023-07-02T03:51:24;94094.56;;;17.77;100.00
23164;BME280;31429;42.674;23.350;2023-07-02T03:52:26;94092.47;;;17.82;100.00
23164;BME280;31429;42.674;23.350;2023-07-02T03:53:26;94096.56;;;17.96;100.00
23164;BME280;31429;42.674;23.350;2023-07-02T03:54:27;94088.44;;;18.00;100.00
23164;BME280;31429;42.674;23.350;2023-07-02T03:55:28;94089.50;;;17.98;100.00
23164;BME280;31429;42.674;23.350;2023-07-02T03:56:28;94090.34;;;17.98;100.00
23164;BME280;31429;42.674;23.350;2023-07-02T03:57:29;94088.91;;;18.05;100.00
23164;BME280;31429;42.674;23.350;2023-07-02T03:58:30;94088.09;;;18.16;100.00
23164;BME280;31429;42.674;23.350;2023-07-02T03:59:31;94094.91;;;18.17;100.00
23164;BME280;31429;42.674;23.350;2023-07-02T04:00:32;94095.72;;;18.17;100.00
23164;BME280;31429;42.674;23.350;2023-07-02T04:01:32;94103.13;;;18.11;100.00
23164;BME280;31429;42.674;23.350;2023-07-02T04:02:33;94095.25;;;18.12;100.00
23164;BME280;31429;42.674;23.350;2023-07-02T04:03:33;94090.31;;;18.20;100.00
23164;BME280;31429;42.674;23.350;2023-07-02T04:04:34;94088.19;;;18.25;100.00
23164;BME280;31429;42.674;23.350;2023-07-02T04:05:35;94088.09;;;18.16;100.00
23164;BME280;31429;42.674;23.350;2023-07-02T04:06:35;94087.75;;;18.09;100.00
23164;BME280;31429;42.674;23.350;2023-07-02T04:07:37;94087.63;;;18.00;100.00
23164;BME280;31429;42.674;23.350;2023-07-02T04:08:38;94092.69;;;18.01;100.00
23164;BME280;31429;42.674;23.350;2023-07-02T04:09:39;94102.19;;;18.12;100.00
23164;BME280;31429;42.674;23.350;2023-07-02T04:10:39;94100.81;;;18.19;100.00
23164;BME280;31429;42.674;23.350;2023-07-02T04:11:40;94103.72;;;18.25;100.00
23164;BME280;31429;42.674;23.350;2023-07-02T04:12:41;94108.56;;;18.19;100.00
23164;BME280;31429;42.674;23.350;2023-07-02T04:13:41;94101.59;;;18.19;100.00
23164;BME280;31429;42.674;23.350;2023-07-02T04:14:44;94099.50;;;18.24;100.00
23164;BME280;31429;42.674;23.350;2023-07-02T04:15:44;94104.31;;;18.29;100.00
23164;BME280;31429;42.674;23.350;2023-07-02T04:16:45;94093.84;;;18.30;100.00
23164;BME280;31429;42.674;23.350;2023-07-02T04:17:46;94097.38;;;18.29;100.00
23164;BME280;31429;42.674;23.350;2023-07-02T04:18:46;94101.84;;;18.16;100.00
23164;BME280;31429;42.674;23.350;2023-07-02T04:19:47;94111.72;;;18.11;100.00
23164;BME280;31429;42.674;23.350;2023-07-02T04:20:49;94120.53;;;18.20;100.00
23164;BME280;31429;42.674;23.350;2023-07-02T04:21:49;94119.94;;;18.05;100.00
23164;BME280;31429;42.674;23.350;2023-07-02T04:22:52;94122.53;;;17.94;100.00
23164;BME280;31429;42.674;23.350;2023-07-02T04:23:52;94130.53;;;18.02;100.00
23164;BME280;31429;42.674;23.350;2023-07-02T04:24:53;94128.06;;;18.12;100.00
23164;BME280;31429;42.674;23.350;2023-07-02T04:25:53;94124.78;;;18.21;100.00
23164;BME280;31429;42.674;23.350;2023-07-02T04:26:54;94130.41;;;18.26;100.00
23164;BME280;31429;42.674;23.350;2023-07-02T04:27:55;94132.19;;;18.25;100.00
23164;BME280;31429;42.674;23.350;2023-07-02T04:28:56;94132.28;;;18.35;100.00
23164;BME280;31429;42.674;23.350;2023-07-02T04:29:57;94134.75;;;18.36;100.00
23164;BME280;31429;42.674;23.350;2023-07-02T04:30:58;94132.16;;;18.36;100.00
23164;BME280;31429;42.674;23.350;2023-07-02T04:31:58;94128.41;;;18.41;100.00
23164;BME280;31429;42.674;23.350;2023-07-02T04:32:59;94133.94;;;18.36;100.00
23164;BME280;31429;42.674;23.350;2023-07-02T04:34:00;94131.00;;;18.41;100.00
23164;BME280;31429;42.674;23.350;2023-07-02T04:35:01;94140.06;;;18.35;100.00
23164;BME280;31429;42.674;23.350;2023-07-02T04:36:02;94143.25;;;18.38;100.00
23164;BME280;31429;42.674;23.350;2023-07-02T04:37:03;94145.59;;;18.42;100.00
23164;BME280;31429;42.674;23.350;2023-07-02T04:38:05;94148.28;;;18.40;100.00
23164;BME280;31429;42.674;23.350;2023-07-02T04:39:08;94138.16;;;18.37;100.00
23164;BME280;31429;42.674;23.350;2023-07-02T04:40:09;94146.31;;;18.32;100.00
23164;BME280;31429;42.674;23.350;2023-07-02T04:41:10;94145.47;;;18.32;100.00
23164;BME280;31429;42.674;23.350;2023-07-02T04:42:11;94145.00;;;18.27;100.00
23164;BME280;31429;42.674;23.350;2023-07-02T04:43:13;94146.88;;;18.25;100.00
23164;BME280;31429;42.674;23.350;2023-07-02T04:44:16;94149.94;;;18.30;100.00
23164;BME280;31429;42.674;23.350;2023-07-02T04:45:17;94156.03;;;18.40;100.00
23164;BME280;31429;42.674;23.350;2023-07-02T04:46:17;94165.59;;;18.28;100.00
23164;BME280;31429;42.674;23.350;2023-07-02T04:47:18;94161.34;;;18.16;100.00
23164;BME280;31429;42.674;23.350;2023-07-02T04:48:19;94165.59;;;18.17;100.00
23164;BME280;31429;42.674;23.350;2023-07-02T04:49:19;94163.47;;;18.22;100.00
23164;BME280;31429;42.674;23.350;2023-07-02T04:50:20;94164.06;;;18.26;100.00
23164;BME280;31429;42.674;23.350;2023-07-02T04:51:21;94161.00;;;18.32;100.00
23164;BME280;31429;42.674;23.350;2023-07-02T04:52:22;94163.22;;;18.36;100.00
23164;BME280;31429;42.674;23.350;2023-07-02T04:53:24;94165.72;;;18.38;100.00
23164;BME280;31429;42.674;23.350;2023-07-02T04:54:24;94161.13;;;18.42;100.00
23164;BME280;31429;42.674;23.350;2023-07-02T04:55:25;94163.47;;;18.45;100.00
23164;BME280;31429;42.674;23.350;2023-07-02T04:56:27;94168.06;;;18.41;100.00
23164;BME280;31429;42.674;23.350;2023-07-02T04:57:27;94167.22;;;18.41;100.00
23164;BME280;31429;42.674;23.350;2023-07-02T04:58:28;94169.13;;;18.38;100.00
23164;BME280;31429;42.674;23.350;2023-07-02T04:59:29;94165.56;;;18.39;100.00
23164;BME280;31429;42.674;23.350;2023-07-02T05:00:29;94164.78;;;18.50;100.00
23164;BME280;31429;42.674;23.350;2023-07-02T05:01:30;94158.31;;;18.56;100.00
23164;BME280;31429;42.674;23.350;2023-07-02T05:02:31;94161.34;;;18.61;100.00
23164;BME280;31429;42.674;23.350;2023-07-02T05:03:31;94155.59;;;18.57;100.00
23164;BME280;31429;42.674;23.350;2023-07-02T05:04:32;94169.22;;;18.59;100.00
23164;BME280;31429;42.674;23.350;2023-07-02T05:05:33;94158.63;;;18.62;100.00
23164;BME280;31429;42.674;23.350;2023-07-02T05:06:33;94165.22;;;18.66;100.00
23164;BME280;31429;42.674;23.350;2023-07-02T05:07:34;94167.00;;;18.66;100.00
23164;BME280;31429;42.674;23.350;2023-07-02T05:08:36;94164.31;;;18.67;100.00
23164;BME280;31429;42.674;23.350;2023-07-02T05:09:37;94176.88;;;18.72;100.00
23164;BME280;31429;42.674;23.350;2023-07-02T05:10:38;94185.34;;;18.74;100.00
23164;BME280;31429;42.674;23.350;2023-07-02T05:11:38;94178.28;;;18.76;100.00
23164;BME280;31429;42.674;23.350;2023-07-02T05:12:39;94173.81;;;18.78;100.00
23164;BME280;31429;42.674;23.350;2023-07-02T05:13:39;94178.75;;;18.81;100.00
23164;BME280;31429;42.674;23.350;2023-07-02T05:14:40;94182.47;;;18.88;100.00
23164;BME280;31429;42.674;23.350;2023-07-02T05:15:41;94184.75;;;18.81;100.00